createdAt,value
2019-05-28T00:02:02.617Z,95.40
2019-05-28T00:04:28.886Z,95.50
2019-05-28T00:06:55.214Z,95.50
2019-05-28T00:09:21.565Z,95.60
2019-05-28T00:11:48.239Z,95.60
2019-05-28T00:14:14.583Z,95.60
2019-05-28T00:16:40.890Z,95.60
2019-05-28T00:19:07.189Z,95.60
2019-05-28T00:21:33.518Z,95.50
2019-05-28T00:23:59.831Z,95.70
2019-05-28T00:26:26.144Z,95.70
2019-05-28T00:28:52.562Z,95.70
2019-05-28T00:31:18.889Z,95.70
2019-05-28T00:33:45.546Z,95.70
2019-05-28T00:36:11.838Z,95.80
2019-05-28T00:38:38.170Z,95.80
2019-05-28T00:41:04.500Z,95.80
2019-05-28T00:43:30.819Z,95.80
2019-05-28T00:45:57.191Z,95.80
2019-05-28T00:48:23.726Z,95.80
2019-05-28T00:50:50.065Z,95.80
2019-05-28T00:53:16.401Z,95.80
2019-05-28T00:55:43.372Z,95.80
2019-05-28T00:58:10.960Z,95.80
2019-05-28T01:00:47.467Z,95.80
2019-05-28T01:03:14.946Z,95.80
2019-05-28T01:05:41.488Z,95.80
2019-05-28T01:08:07.936Z,95.80
2019-05-28T01:10:43.121Z,95.90
2019-05-28T01:13:09.839Z,95.80
2019-05-28T01:15:42.002Z,95.90
2019-05-28T01:18:16.210Z,95.90
2019-05-28T01:20:44.207Z,95.90
2019-05-28T01:23:19.471Z,95.80
2019-05-28T01:25:48.755Z,95.80
2019-05-28T01:28:15.064Z,95.70
2019-05-28T01:30:54.865Z,95.80
2019-05-28T01:33:17.760Z,95.80
2019-05-28T01:35:44.491Z,95.90
2019-05-28T01:38:10.813Z,95.90
2019-05-28T01:40:37.164Z,95.80
2019-05-28T01:43:03.510Z,95.80
2019-05-28T01:45:29.834Z,95.90
2019-05-28T01:47:57.655Z,95.80
2019-05-28T01:50:24.303Z,95.90
2019-05-28T01:52:50.651Z,96.00
2019-05-28T01:55:17.188Z,96.00
2019-05-28T01:57:43.522Z,96.00
2019-05-28T02:00:12.334Z,96.00
2019-05-28T02:02:38.852Z,96.00
2019-05-28T02:05:15.739Z,96.00
2019-05-28T02:07:42.852Z,96.00
2019-05-28T02:10:10.415Z,96.00
2019-05-28T02:12:36.725Z,96.10
2019-05-28T02:15:09.209Z,96.00
2019-05-28T02:17:35.773Z,96.00
2019-05-28T02:20:05.735Z,96.10
2019-05-28T02:22:32.028Z,96.10
2019-05-28T02:24:58.385Z,96.00
2019-05-28T02:27:24.752Z,96.00
2019-05-28T02:29:51.066Z,96.00
2019-05-28T02:32:17.393Z,96.00
2019-05-28T02:34:51.775Z,96.10
2019-05-28T02:37:20.511Z,96.10
2019-05-28T02:39:47.201Z,96.10
2019-05-28T02:42:13.585Z,96.00
2019-05-28T02:44:39.969Z,96.00
2019-05-28T02:47:06.395Z,96.00
2019-05-28T02:49:32.724Z,96.00
2019-05-28T02:52:02.075Z,96.00
2019-05-28T02:54:29.379Z,96.00
2019-05-28T02:56:58.549Z,96.00
2019-05-28T02:59:27.999Z,96.00
2019-05-28T03:01:57.619Z,96.00
2019-05-28T03:04:27.011Z,96.00
2019-05-28T03:06:59.256Z,96.00
2019-05-28T03:09:29.945Z,95.90
2019-05-28T03:11:56.386Z,95.90
2019-05-28T03:14:22.694Z,95.80
2019-05-28T03:16:54.552Z,95.80
2019-05-28T03:19:27.008Z,95.80
2019-05-28T03:22:01.505Z,95.80
2019-05-28T03:24:31.330Z,95.80
2019-05-28T03:26:57.763Z,95.80
2019-05-28T03:29:24.188Z,95.90
2019-05-28T03:32:06.732Z,95.90
2019-05-28T03:34:18.802Z,95.90
2019-05-28T03:36:45.979Z,95.90
2019-05-28T03:39:20.427Z,96.00
2019-05-28T03:41:47.126Z,96.00
2019-05-28T03:44:13.485Z,96.00
2019-05-28T03:46:39.773Z,96.00
2019-05-28T03:49:09.657Z,96.00
2019-05-28T03:51:36.544Z,96.00
2019-05-28T03:54:03.291Z,96.00
2019-05-28T03:56:29.613Z,95.90
2019-05-28T03:58:55.979Z,96.00
2019-05-28T04:01:25.122Z,96.30
2019-05-28T04:03:54.036Z,96.00
2019-05-28T04:06:24.471Z,96.00
2019-05-28T04:08:51.316Z,96.10
2019-05-28T04:11:18.146Z,96.20
2019-05-28T04:13:44.666Z,96.20
2019-05-28T04:16:11.037Z,96.30
2019-05-28T04:18:39.585Z,96.30
2019-05-28T04:21:07.344Z,96.30
2019-05-28T04:23:33.730Z,96.40
2019-05-28T04:26:02.922Z,96.30
2019-05-28T04:28:29.744Z,96.30
2019-05-28T04:30:56.088Z,96.40
2019-05-28T04:33:22.428Z,96.40
2019-05-28T04:35:51.982Z,96.40
2019-05-28T04:38:18.449Z,96.50
2019-05-28T04:40:44.774Z,96.50
2019-05-28T04:43:11.223Z,96.60
2019-05-28T04:45:37.670Z,96.60
2019-05-28T04:48:04.235Z,96.60
2019-05-28T04:50:30.585Z,96.50
2019-05-28T04:52:56.963Z,96.50
2019-05-28T04:55:23.257Z,96.60
2019-05-28T04:57:49.578Z,96.60
2019-05-28T05:00:16.630Z,96.60
2019-05-28T05:02:57.830Z,96.50
2019-05-28T05:05:18.120Z,96.50
2019-05-28T05:07:44.770Z,96.60
2019-05-28T05:10:20.933Z,96.60
2019-05-28T05:12:55.178Z,96.70
2019-05-28T05:15:21.525Z,96.70
2019-05-28T05:17:47.873Z,96.80
2019-05-28T05:20:14.490Z,96.80
2019-05-28T05:22:40.829Z,96.80
2019-05-28T05:25:08.873Z,96.90
2019-05-28T05:27:35.221Z,96.90
2019-05-28T05:30:03.662Z,96.90
2019-05-28T05:32:30.776Z,96.80
2019-05-28T05:34:57.136Z,96.90
2019-05-28T05:37:31.653Z,96.90
2019-05-28T05:40:02.579Z,96.90
2019-05-28T05:42:30.707Z,96.80
2019-05-28T05:44:57.013Z,96.80
2019-05-28T05:47:25.512Z,96.70
2019-05-28T05:49:51.854Z,96.70
2019-05-28T05:52:18.235Z,96.70
2019-05-28T05:54:44.561Z,96.80
2019-05-28T05:57:10.916Z,97.00
2019-05-28T05:59:37.260Z,96.80
2019-05-28T06:02:06.083Z,96.90
2019-05-28T06:04:40.575Z,96.80
2019-05-28T06:07:07.995Z,96.80
2019-05-28T06:09:44.489Z,96.80
2019-05-28T06:12:11.425Z,96.70
2019-05-28T06:14:44.880Z,96.30
2019-05-28T06:17:12.456Z,96.10
2019-05-28T06:19:38.793Z,96.20
2019-05-28T06:22:06.861Z,95.90
2019-05-28T06:24:33.183Z,95.80
2019-05-28T06:26:59.643Z,95.80
2019-05-28T06:29:25.995Z,95.80
2019-05-28T06:31:52.318Z,95.60
2019-05-28T06:34:18.646Z,95.80
2019-05-28T06:36:45.249Z,95.80
2019-05-28T06:39:11.689Z,95.80
2019-05-28T06:41:38.036Z,95.90
2019-05-28T06:44:04.411Z,95.90
2019-05-28T06:46:30.732Z,95.60
2019-05-28T06:48:57.149Z,95.60
2019-05-28T06:51:23.464Z,95.90
2019-05-28T06:53:49.803Z,95.60
2019-05-28T06:56:16.136Z,95.60
2019-05-28T06:58:42.439Z,95.70
2019-05-28T07:01:08.797Z,95.70
2019-05-28T07:03:35.114Z,95.70
2019-05-28T07:06:07.173Z,95.80
2019-05-28T07:08:29.677Z,95.60
2019-05-28T07:10:58.319Z,95.70
2019-05-28T07:13:24.667Z,95.90
2019-05-28T07:15:51.001Z,95.90
2019-05-28T07:18:17.327Z,96.10
2019-05-28T07:20:43.646Z,95.70
2019-05-28T07:23:09.962Z,95.80
2019-05-28T07:25:36.332Z,95.90
2019-05-28T07:28:11.138Z,95.80
2019-05-28T07:30:30.998Z,95.70
2019-05-28T07:32:57.338Z,95.80
2019-05-28T07:35:23.797Z,96.20
2019-05-28T07:37:50.105Z,95.90
2019-05-28T07:40:30.553Z,96.00
2019-05-28T07:42:44.654Z,95.90
2019-05-28T07:45:11.537Z,95.80
2019-05-28T07:47:37.878Z,95.60
2019-05-28T07:50:05.731Z,95.30
2019-05-28T07:52:32.081Z,95.20
2019-05-28T07:54:58.400Z,95.00
2019-05-28T07:57:24.733Z,94.80
2019-05-28T07:59:51.064Z,94.60
2019-05-28T08:02:17.424Z,94.40
2019-05-28T08:04:47.282Z,94.40
2019-05-28T08:07:12.421Z,94.50
2019-05-28T08:09:39.078Z,94.70
2019-05-28T08:12:05.400Z,94.80
2019-05-28T08:14:31.721Z,95.00
2019-05-28T08:16:58.065Z,95.40
2019-05-28T08:19:24.449Z,95.50
2019-05-28T08:21:50.757Z,95.60
2019-05-28T08:24:17.116Z,95.70
2019-05-28T08:26:43.467Z,95.80
2019-05-28T08:29:09.895Z,95.80
2019-05-28T08:31:36.197Z,95.60
2019-05-28T08:34:02.728Z,95.50
2019-05-28T08:36:29.027Z,95.20
2019-05-28T08:38:55.332Z,95.00
2019-05-28T08:41:22.012Z,94.60
2019-05-28T08:43:48.464Z,93.90
2019-05-28T08:46:14.860Z,93.60
2019-05-28T08:48:41.192Z,93.50
2019-05-28T08:51:10.255Z,93.70
2019-05-28T08:53:35.728Z,93.90
2019-05-28T08:56:02.249Z,94.30
2019-05-28T08:58:28.594Z,94.60
2019-05-28T09:00:54.950Z,94.90
2019-05-28T09:03:21.289Z,95.20
2019-05-28T09:05:47.592Z,95.60
2019-05-28T09:08:14.001Z,95.60
2019-05-28T09:10:40.451Z,95.90
2019-05-28T09:13:06.748Z,95.80
2019-05-28T09:15:33.586Z,95.90
2019-05-28T09:18:06.980Z,95.90
2019-05-28T09:20:33.603Z,95.80
2019-05-28T09:23:00.302Z,95.90
2019-05-28T09:25:26.932Z,95.80
2019-05-28T09:27:53.669Z,95.90
2019-05-28T09:30:20.894Z,95.80
2019-05-28T09:32:52.754Z,95.90
2019-05-28T09:35:20.158Z,95.90
2019-05-28T09:37:46.518Z,95.80
2019-05-28T09:40:13.102Z,96.10
2019-05-28T09:42:39.429Z,96.10
2019-05-28T09:45:22.113Z,96.10
2019-05-28T09:47:35.591Z,95.90
2019-05-28T09:50:21.196Z,95.90
2019-05-28T09:52:34.348Z,96.00
2019-05-28T09:55:00.718Z,95.90
2019-05-28T09:57:27.042Z,95.90
2019-05-28T09:59:53.540Z,96.00
2019-05-28T10:02:20.268Z,96.00
2019-05-28T10:04:49.942Z,95.70
2019-05-28T10:07:15.243Z,95.60
2019-05-28T10:09:41.627Z,95.60
2019-05-28T10:12:07.962Z,95.40
2019-05-28T10:14:34.302Z,95.30
2019-05-28T10:17:00.601Z,95.00
2019-05-28T10:19:27.051Z,94.80
2019-05-28T10:21:53.487Z,94.80
2019-05-28T10:24:19.893Z,94.80
2019-05-28T10:26:46.303Z,94.90
2019-05-28T10:29:12.647Z,94.90
2019-05-28T10:31:38.989Z,95.10
2019-05-28T10:34:05.306Z,95.30
2019-05-28T10:36:36.811Z,95.40
2019-05-28T10:38:59.952Z,95.50
2019-05-28T10:41:26.369Z,95.60
2019-05-28T10:43:52.734Z,95.70
2019-05-28T10:46:19.165Z,95.70
2019-05-28T10:48:45.784Z,95.70
2019-05-28T10:51:12.202Z,95.60
2019-05-28T10:53:38.639Z,95.40
2019-05-28T10:56:04.953Z,95.20
2019-05-28T10:58:31.286Z,94.90
2019-05-28T11:00:59.545Z,94.90
2019-05-28T11:03:25.860Z,94.90
2019-05-28T11:05:52.280Z,94.70
2019-05-28T11:08:18.630Z,94.50
2019-05-28T11:10:45.121Z,94.50
2019-05-28T11:13:11.483Z,94.40
2019-05-28T11:15:37.812Z,94.30
2019-05-28T11:18:04.407Z,94.20
2019-05-28T11:20:31.287Z,94.00
2019-05-28T11:22:57.632Z,94.10
2019-05-28T11:25:24.298Z,93.80
2019-05-28T11:27:50.601Z,93.60
2019-05-28T11:30:21.043Z,93.50
2019-05-28T11:32:48.526Z,93.60
2019-05-28T11:35:16.992Z,93.40
2019-05-28T11:37:43.284Z,93.20
2019-05-28T11:40:31.390Z,93.00
2019-05-28T11:42:57.709Z,92.80
2019-05-28T11:45:24.729Z,92.30
2019-05-28T11:47:51.547Z,92.10
2019-05-28T11:50:18.530Z,91.60
2019-05-28T11:52:44.939Z,91.30
2019-05-28T11:55:14.321Z,91.10
2019-05-28T11:57:40.778Z,91.30
2019-05-28T12:00:09.842Z,91.00
2019-05-28T12:02:36.146Z,91.00
2019-05-28T12:05:06.878Z,91.20
2019-05-28T12:07:33.862Z,91.10
2019-05-28T12:10:09.333Z,90.70
2019-05-28T12:12:42.981Z,90.70
2019-05-28T12:15:16.417Z,90.80
2019-05-28T12:17:47.051Z,90.70
2019-05-28T12:20:21.073Z,90.90
2019-05-28T12:23:08.928Z,91.10
2019-05-28T12:25:26.475Z,91.20
2019-05-28T12:27:58.912Z,91.20
2019-05-28T12:30:29.588Z,91.20
2019-05-28T12:33:00.689Z,91.20
2019-05-28T12:35:32.019Z,91.30
2019-05-28T12:37:58.709Z,91.10
2019-05-28T12:40:25.224Z,91.10
2019-05-28T12:42:51.550Z,91.10
2019-05-28T12:45:33.832Z,91.10
2019-05-28T12:48:07.244Z,91.10
2019-05-28T12:50:22.408Z,90.80
2019-05-28T12:52:48.729Z,90.40
2019-05-28T12:55:16.870Z,90.50
2019-05-28T12:57:43.219Z,90.00
2019-05-28T13:00:13.379Z,90.00
2019-05-28T13:02:39.982Z,90.20
2019-05-28T13:05:16.973Z,90.00
2019-05-28T13:07:43.320Z,89.90
2019-05-28T13:10:10.779Z,90.00
2019-05-28T13:12:37.275Z,89.10
2019-05-28T13:15:07.067Z,88.10
2019-05-28T13:17:33.721Z,88.70
2019-05-28T13:20:00.177Z,89.40
2019-05-28T13:22:26.452Z,88.00
2019-05-28T13:24:52.795Z,88.20
2019-05-28T13:27:19.179Z,87.50
2019-05-28T13:29:45.529Z,86.90
2019-05-28T13:32:11.856Z,86.40
2019-05-28T13:34:38.184Z,86.20
2019-05-28T13:37:04.627Z,85.80
2019-05-28T13:39:30.940Z,86.20
2019-05-28T13:41:57.260Z,85.00
2019-05-28T13:44:33.015Z,85.10
2019-05-28T13:46:59.837Z,85.60
2019-05-28T13:49:26.149Z,87.60
2019-05-28T13:51:53.045Z,89.00
2019-05-28T13:54:20.742Z,90.30
2019-05-28T13:56:47.097Z,90.70
2019-05-28T13:59:13.422Z,91.30
2019-05-28T14:01:39.761Z,91.60
2019-05-28T14:04:06.213Z,91.60
2019-05-28T14:06:44.303Z,91.70
2019-05-28T14:09:09.725Z,91.70
2019-05-28T14:11:43.107Z,91.40
2019-05-28T14:14:10.754Z,90.90
2019-05-28T14:16:37.092Z,91.00
2019-05-28T14:19:03.951Z,91.00
2019-05-28T14:21:30.283Z,91.00
2019-05-28T14:23:56.648Z,91.10
2019-05-28T14:26:23.004Z,91.10
2019-05-28T14:28:53.321Z,91.20
2019-05-28T14:31:17.715Z,91.20
2019-05-28T14:33:44.114Z,91.30
2019-05-28T14:36:10.444Z,91.20
2019-05-28T14:38:36.913Z,91.40
2019-05-28T14:41:10.094Z,91.50
2019-05-28T14:43:36.665Z,91.30
2019-05-28T14:46:10.353Z,91.10
2019-05-28T14:48:45.915Z,91.20
2019-05-28T14:51:12.619Z,90.90
2019-05-28T14:53:38.990Z,90.80
2019-05-28T14:56:05.317Z,90.90
2019-05-28T14:58:35.932Z,90.90
2019-05-28T15:01:03.246Z,90.80
2019-05-28T15:03:29.619Z,90.70
2019-05-28T15:05:56.298Z,90.90
2019-05-28T15:08:22.757Z,90.90
2019-05-28T15:10:49.139Z,91.00
2019-05-28T15:13:15.482Z,90.90
2019-05-28T15:15:41.812Z,90.90
2019-05-28T15:18:08.179Z,90.80
2019-05-28T15:20:34.480Z,90.60
2019-05-28T15:23:00.819Z,90.60
2019-05-28T15:25:27.301Z,90.90
2019-05-28T15:27:53.809Z,90.90
2019-05-28T15:30:22.020Z,90.90
2019-05-28T15:32:48.483Z,90.90
2019-05-28T15:35:15.212Z,90.80
2019-05-28T15:37:41.547Z,90.30
2019-05-28T15:40:11.907Z,88.70
2019-05-28T15:42:38.236Z,88.00
2019-05-28T15:45:08.370Z,88.20
2019-05-28T15:47:44.625Z,88.20
2019-05-28T15:50:12.871Z,88.40
2019-05-28T15:52:39.312Z,88.30
2019-05-28T15:55:08.573Z,88.40
2019-05-28T15:57:34.908Z,88.30
2019-05-28T16:00:01.288Z,88.30
2019-05-28T16:02:27.844Z,88.50
2019-05-28T16:04:54.277Z,88.90
2019-05-28T16:07:20.623Z,89.80
2019-05-28T16:09:56.282Z,88.10
2019-05-28T16:12:17.956Z,88.40
2019-05-28T16:14:45.089Z,88.60
2019-05-28T16:17:11.771Z,89.70
2019-05-28T16:19:38.213Z,90.00
2019-05-28T16:22:04.588Z,90.00
2019-05-28T16:24:31.008Z,90.10
2019-05-28T16:26:57.631Z,90.00
2019-05-28T16:29:23.936Z,90.10
2019-05-28T16:31:50.364Z,90.10
2019-05-28T16:34:16.740Z,90.20
2019-05-28T16:36:43.137Z,90.40
2019-05-28T16:39:09.520Z,90.40
2019-05-28T16:41:36.046Z,90.50
2019-05-28T16:44:05.001Z,90.40
2019-05-28T16:46:31.332Z,90.60
2019-05-28T16:48:57.672Z,90.60
2019-05-28T16:51:24.058Z,91.30
2019-05-28T16:53:50.650Z,91.20
2019-05-28T16:56:16.996Z,91.20
2019-05-28T16:58:43.325Z,91.20
2019-05-28T17:01:21.833Z,91.00
2019-05-28T17:03:37.956Z,91.10
2019-05-28T17:06:04.676Z,91.10
2019-05-28T17:08:31.042Z,91.10
2019-05-28T17:10:57.776Z,91.30
2019-05-28T17:13:24.093Z,90.90
2019-05-28T17:15:50.467Z,90.90
2019-05-28T17:18:16.805Z,90.90
2019-05-28T17:20:43.125Z,90.90
2019-05-28T17:23:16.184Z,90.60
2019-05-28T17:25:42.853Z,87.80
2019-05-28T17:28:09.340Z,87.70
2019-05-28T17:30:35.690Z,87.00
2019-05-28T17:33:02.181Z,87.00
2019-05-28T17:35:28.892Z,87.20
2019-05-28T17:38:05.749Z,87.10
2019-05-28T17:40:47.463Z,87.70
2019-05-28T17:43:00.674Z,88.40
2019-05-28T17:45:27.076Z,89.00
2019-05-28T17:47:53.827Z,89.20
2019-05-28T17:50:21.345Z,89.70
2019-05-28T17:52:51.391Z,89.90
2019-05-28T17:55:16.146Z,90.30
2019-05-28T17:57:42.469Z,90.30
2019-05-28T18:00:10.505Z,90.30
2019-05-28T18:02:37.184Z,90.20
2019-05-28T18:06:18.682Z,90.20
2019-05-28T18:08:47.017Z,90.30
2019-05-28T18:11:13.623Z,90.40
2019-05-28T18:13:39.976Z,90.50
2019-05-28T18:16:06.459Z,90.50
2019-05-28T18:18:33.073Z,90.70
2019-05-28T18:21:06.404Z,90.80
2019-05-28T18:27:28.958Z,91.00
2019-05-28T18:30:04.466Z,91.00
2019-05-28T18:33:32.529Z,91.00
2019-05-28T18:36:09.700Z,91.00
2019-05-28T18:38:44.429Z,91.00
2019-05-28T18:41:21.074Z,91.00
2019-05-28T18:43:40.289Z,91.00
2019-05-28T18:46:06.873Z,91.00
2019-05-28T18:48:38.512Z,91.00
2019-05-28T18:51:03.383Z,91.00
2019-05-28T18:53:29.965Z,91.10
2019-05-28T18:55:56.373Z,91.70
2019-05-28T18:58:23.392Z,91.40
2019-05-28T19:00:49.970Z,91.40
2019-05-28T19:03:31.518Z,91.50
2019-05-28T19:05:58.520Z,91.60
2019-05-28T19:08:25.502Z,91.60
2019-05-28T19:10:52.562Z,91.50
2019-05-28T19:13:19.630Z,91.50
2019-05-28T19:15:46.862Z,91.50
2019-05-28T19:18:24.129Z,91.60
2019-05-28T19:20:55.927Z,91.60
2019-05-28T19:23:26.306Z,91.60
2019-05-28T19:25:58.774Z,91.70
2019-05-28T19:28:33.181Z,91.50
2019-05-28T19:31:08.444Z,91.50
2019-05-28T19:33:40.664Z,91.40
2019-05-28T19:36:16.842Z,91.30
2019-05-28T19:38:55.852Z,91.70
2019-05-28T19:41:30.246Z,91.30
2019-05-28T19:44:11.721Z,91.20
2019-05-28T19:46:42.460Z,91.20
2019-05-28T19:49:18.653Z,91.10
2019-05-28T19:51:45.929Z,91.10
2019-05-28T20:06:50.849Z,90.80
2019-05-28T20:09:31.167Z,90.80
2019-05-28T20:12:11.652Z,90.80
2019-05-28T20:14:29.760Z,90.70
2019-05-28T20:20:03.133Z,90.70
2019-05-28T20:25:31.122Z,90.60
2019-05-28T20:28:03.694Z,90.60
2019-05-28T20:39:34.526Z,90.60
2019-05-28T20:42:26.529Z,90.60
2019-05-28T21:47:29.772Z,93.20
2019-05-28T21:50:11.250Z,93.60
2019-05-28T21:52:49.515Z,93.70
2019-05-28T21:58:17.278Z,93.80
2019-05-28T22:01:23.189Z,94.10
2019-05-28T22:04:01.606Z,94.10
2019-05-28T22:06:35.535Z,94.20
2019-05-28T22:09:08.128Z,94.30
2019-05-28T22:11:37.385Z,94.30
2019-05-28T22:14:09.864Z,94.50
2019-05-28T22:16:40.016Z,94.50
2019-05-28T22:19:10.397Z,94.50
2019-05-28T22:21:49.151Z,94.50
2019-05-28T22:27:35.723Z,94.50
2019-05-28T22:35:30.034Z,94.50
2019-05-28T22:39:17.519Z,94.80
2019-05-28T22:57:47.611Z,94.80
2019-05-28T23:00:19.944Z,94.50
2019-05-28T23:06:03.314Z,94.80
2019-05-28T23:14:48.777Z,94.80
2019-05-28T23:17:27.588Z,94.80
2019-05-28T23:20:04.970Z,94.70
2019-05-28T23:22:36.244Z,94.70
2019-05-28T23:25:31.593Z,94.80
2019-05-28T23:28:01.388Z,94.80
2019-05-28T23:30:34.066Z,94.80
2019-05-28T23:33:00.382Z,94.80
2019-05-28T23:35:27.152Z,94.80
2019-05-28T23:37:54.009Z,94.80
2019-05-28T23:40:21.069Z,94.80
2019-05-28T23:42:47.483Z,94.80
2019-05-28T23:45:14.270Z,94.90
2019-05-28T23:47:44.452Z,95.00
2019-05-28T23:50:17.942Z,95.00
2019-05-28T23:52:45.103Z,95.10
2019-05-28T23:55:12.175Z,95.10
2019-05-28T23:57:38.506Z,95.10
